Time;durP1;ratioP1;P1;durP2;ratioP2;P2;SDS_P1;SDS_P2;PMS_P1;PMS_P2;Temp;Humidity;BMP_temperature;BMP_pressure;BME280_temperature;BME280_humidity;BME280_pressure;Samples;Min_cycle;Max_cycle;Signal;HPM_P1;HPM_P2
2023/11/02 00:02:29;;;;;;;26.00;21.40;;;;;;;6.02;100.00;98024.40;109602;1251;59357;-72
2023/11/02 00:04:57;;;;;;;31.50;23.80;;;;;;;6.04;100.00;98026.59;109865;1251;59019;-72
2023/11/02 00:07:23;;;;;;;29.90;23.00;;;;;;;6.05;100.00;98027.73;109522;1254;64733;-73
2023/11/02 00:09:56;;;;;;;32.50;24.00;;;;;;;6.04;100.00;98024.95;109786;1253;60097;-73
2023/11/02 00:12:26;;;;;;;33.80;26.00;;;;;;;6.03;100.00;98023.30;109610;1251;72568;-74
2023/11/02 00:14:53;;;;;;;29.10;22.50;;;;;;;6.01;100.00;98027.13;109797;1250;58968;-73
2023/11/02 00:17:35;;;;;;;29.70;23.00;;;;;;;5.99;100.00;98026.14;109847;1249;59069;-73
2023/11/02 00:20:04;;;;;;;29.50;23.10;;;;;;;5.98;100.00;98018.14;109875;1250;64508;-74
2023/11/02 00:22:30;;;;;;;32.40;24.80;;;;;;;5.95;100.00;98016.76;109453;1251;69226;-73
2023/11/02 00:25:01;;;;;;;28.60;23.90;;;;;;;5.92;100.00;98016.52;109826;1250;63854;-73
2023/11/02 00:27:28;;;;;;;33.90;24.70;;;;;;;5.90;100.00;98016.64;109820;1250;58979;-74
2023/11/02 00:29:54;;;;;;;31.90;24.50;;;;;;;5.88;100.00;98008.67;109870;1249;59115;-73
2023/11/02 00:32:21;;;;;;;33.70;25.30;;;;;;;5.87;100.00;98003.97;109812;1251;59002;-74
2023/11/02 00:34:48;;;;;;;31.70;24.40;;;;;;;5.86;100.00;97999.79;109832;1251;61323;-73
2023/11/02 00:37:15;;;;;;;26.80;21.80;;;;;;;5.86;100.00;97994.37;109840;1250;63773;-74
2023/11/02 00:39:41;;;;;;;33.90;25.80;;;;;;;5.86;100.00;97991.59;109872;1251;58986;-74
2023/11/02 00:42:08;;;;;;;26.20;22.70;;;;;;;5.86;100.00;97989.80;109845;1251;59045;-73
2023/11/02 00:44:34;;;;;;;27.50;21.90;;;;;;;5.88;100.00;97990.54;109874;1251;59142;-73
2023/11/02 00:47:01;;;;;;;31.80;24.00;;;;;;;5.88;100.00;97989.96;109624;1251;61256;-73
2023/11/02 00:49:35;;;;;;;26.70;22.30;;;;;;;5.88;100.00;97983.30;109831;1250;62943;-73
2023/11/02 00:52:04;;;;;;;27.60;22.80;;;;;;;5.88;100.00;97981.89;109589;1251;58994;-72
2023/11/02 00:54:58;;;;;;;28.20;22.50;;;;;;;5.87;100.00;97975.08;109874;1251;59810;-72
2023/11/02 00:57:35;;;;;;;28.20;22.10;;;;;;;5.86;100.00;97974.60;108957;1260;67172;-73
2023/11/02 01:00:01;;;;;;;25.60;22.20;;;;;;;5.85;100.00;97979.45;109000;1260;59313;-72
2023/11/02 01:02:37;;;;;;;28.10;21.80;;;;;;;5.81;100.00;97979.35;108957;1259;63147;-73
2023/11/02 01:05:08;;;;;;;29.30;22.90;;;;;;;5.79;100.00;97976.13;108888;1258;59032;-74
2023/11/02 01:07:34;;;;;;;26.00;22.70;;;;;;;5.78;100.00;97969.71;108803;1259;58892;-74
2023/11/02 01:10:04;;;;;;;27.10;23.00;;;;;;;5.77;100.00;97966.43;109028;1261;64836;-74
2023/11/02 01:12:37;;;;;;;28.80;22.40;;;;;;;5.75;100.00;97961.94;108979;1259;59318;-73
2023/11/02 01:15:10;;;;;;;29.60;22.20;;;;;;;5.72;100.00;97959.43;108987;1260;62570;-73
2023/11/02 01:17:39;;;;;;;25.90;21.90;;;;;;;5.71;100.00;97954.61;108909;1258;59485;-73
2023/11/02 01:20:10;;;;;;;26.50;22.70;;;;;;;5.70;100.00;97954.66;108986;1260;60338;-73
2023/11/02 01:22:50;;;;;;;25.50;20.50;;;;;;;5.69;100.00;97955.98;108854;1261;67243;-73
2023/11/02 01:25:17;;;;;;;25.50;20.40;;;;;;;5.69;100.00;97955.80;108906;1260;60268;-73
2023/11/02 01:27:44;;;;;;;26.30;21.40;;;;;;;5.68;100.00;97954.81;108973;1260;64410;-73
2023/11/02 01:30:22;;;;;;;29.40;21.90;;;;;;;5.67;100.00;97949.73;108962;1261;59045;-73
2023/11/02 01:32:49;;;;;;;23.70;19.90;;;;;;;5.67;100.00;97947.63;109010;1258;59080;-73
2023/11/02 01:35:44;;;;;;;24.90;19.80;;;;;;;5.67;100.00;97944.48;109682;1251;59081;-73
2023/11/02 01:38:14;;;;;;;25.10;20.50;;;;;;;5.68;100.00;97942.65;109615;1251;60197;-73
2023/11/02 01:40:50;;;;;;;;;;;;;;;5.67;100.00;97944.60;109620;1251;63846;-73
2023/11/02 01:43:23;;;;;;;23.80;19.40;;;;;;;5.65;100.00;97940.74;109817;1251;58950;-73
2023/11/02 01:45:52;;;;;;;22.70;19.90;;;;;;;5.64;100.00;97937.92;109871;1251;59097;-73
2023/11/02 01:48:26;;;;;;;25.20;19.20;;;;;;;5.65;100.00;97938.80;109821;1251;66081;-73
2023/11/02 01:51:13;;;;;;;23.20;20.60;;;;;;;5.64;100.00;97936.70;109573;1251;60352;-73
2023/11/02 01:54:09;;;;;;;25.80;23.10;;;;;;;5.63;100.00;97933.06;109792;1249;62736;-74
2023/11/02 01:56:47;;;;;;;27.30;19.60;;;;;;;5.63;100.00;97927.83;109818;1251;59120;-74
2023/11/02 01:59:35;;;;;;;24.20;20.70;;;;;;;5.62;100.00;97925.20;109815;1251;59026;-74
2023/11/02 02:02:05;;;;;;;24.70;21.60;;;;;;;5.62;100.00;97918.71;109773;1251;66204;-73
2023/11/02 02:05:00;;;;;;;26.80;22.00;;;;;;;5.62;100.00;97916.44;109620;1251;58994;-72
2023/11/02 02:07:26;;;;;;;23.60;18.60;;;;;;;5.63;100.00;97917.78;109808;1250;62547;-73
2023/11/02 02:10:13;;;;;;;22.10;19.00;;;;;;;5.65;100.00;97917.98;109812;1251;58995;-73
2023/11/02 02:13:02;;;;;;;22.30;18.30;;;;;;;5.66;100.00;97911.59;109621;1250;59007;-73
2023/11/02 02:16:08;;;;;;;20.40;18.10;;;;;;;5.64;100.00;97918.20;109461;1251;65749;-74
2023/11/02 02:18:51;;;;;;;19.30;16.20;;;;;;;5.62;100.00;97910.23;109620;1249;59165;-75
2023/11/02 02:21:28;;;;;;;22.30;17.20;;;;;;;5.63;100.00;97903.34;109862;1249;64074;-74
2023/11/02 02:24:30;;;;;;;19.90;15.20;;;;;;;5.64;100.00;97905.55;109773;1251;59011;-75
2023/11/02 02:27:38;;;;;;;19.20;15.50;;;;;;;5.65;100.00;97899.13;108974;1258;58983;-73
2023/11/02 02:30:37;;;;;;;18.60;15.20;;;;;;;5.66;100.00;97903.48;108972;1258;75822;-72
2023/11/02 02:33:19;;;;;;;19.30;15.20;;;;;;;5.67;100.00;97896.39;109009;1258;60155;-73
2023/11/02 02:35:55;;;;;;;20.00;15.90;;;;;;;5.69;100.00;97894.09;108924;1260;65500;-74
2023/11/02 02:38:30;;;;;;;17.70;15.00;;;;;;;5.71;100.00;97890.45;108980;1258;59037;-72
2023/11/02 02:41:07;;;;;;;21.70;17.10;;;;;;;5.72;100.00;97881.23;108919;1260;58969;-73
2023/11/02 02:43:38;;;;;;;20.40;16.40;;;;;;;5.73;100.00;97879.58;108978;1259;66120;-73
2023/11/02 02:46:07;;;;;;;20.30;16.30;;;;;;;5.72;100.00;97878.38;108836;1260;59310;-73
2023/11/02 02:48:34;;;;;;;20.10;17.40;;;;;;;5.71;100.00;97871.91;108874;1258;65308;-73
2023/11/02 02:51:03;;;;;;;22.60;18.10;;;;;;;5.70;100.00;97868.12;108948;1259;59331;-72
2023/11/02 02:53:33;;;;;;;22.10;17.70;;;;;;;5.68;100.00;97864.72;108952;1259;59275;-73
2023/11/02 02:56:07;;;;;;;23.30;17.60;;;;;;;5.68;100.00;97866.86;108907;1260;64495;-73
2023/11/02 02:59:00;;;;;;;22.70;19.00;;;;;;;5.66;100.00;97866.77;108914;1258;60151;-73
2023/11/02 03:01:41;;;;;;;26.60;18.90;;;;;;;5.66;100.00;97865.60;108569;1263;65324;-73
2023/11/02 03:04:11;;;;;;;20.10;17.80;;;;;;;5.65;100.00;97868.83;108867;1257;58991;-74
2023/11/02 03:06:43;;;;;;;22.60;19.20;;;;;;;5.64;100.00;97864.30;109044;1257;59295;-73
2023/11/02 03:09:14;;;;;;;23.00;18.90;;;;;;;5.64;100.00;97866.41;109029;1257;67475;-73
2023/11/02 03:11:44;;;;;;;24.00;18.00;;;;;;;5.64;100.00;97866.23;109191;1256;60155;-73
2023/11/02 03:14:13;;;;;;;25.00;19.40;;;;;;;5.65;100.00;97863.33;109148;1257;63912;-73
2023/11/02 03:16:42;;;;;;;22.00;17.70;;;;;;;5.65;100.00;97864.39;108984;1256;59015;-74
2023/11/02 03:19:08;;;;;;;23.80;17.50;;;;;;;5.64;100.00;97862.51;109166;1256;59149;-73
2023/11/02 03:21:35;;;;;;;21.90;18.80;;;;;;;5.64;100.00;97862.00;109187;1257;64797;-73
2023/11/02 03:24:17;;;;;;;20.10;17.20;;;;;;;5.64;100.00;97854.63;109193;1256;59949;-73
2023/11/02 03:27:00;;;;;;;21.10;17.30;;;;;;;5.63;100.00;97850.97;109050;1257;62862;-73
2023/11/02 03:29:50;;;;;;;21.40;17.00;;;;;;;5.63;100.00;97851.14;109005;1257;59395;-73
2023/11/02 03:32:25;;;;;;;20.20;15.70;;;;;;;5.64;100.00;97856.01;109056;1257;59031;-73
2023/11/02 03:35:08;;;;;;;18.70;16.20;;;;;;;5.64;100.00;97856.36;109066;1256;66307;-74
2023/11/02 03:37:37;;;;;;;19.40;14.30;;;;;;;5.65;100.00;97855.41;109072;1250;60159;-74
2023/11/02 03:40:23;;;;;;;15.80;13.80;;;;;;;5.67;100.00;97848.95;109528;1250;62812;-74
2023/11/02 03:43:04;;;;;;;17.70;14.60;;;;;;;5.70;100.00;97843.78;109597;1249;59033;-74
2023/11/02 03:45:56;;;;;;;16.10;14.20;;;;;;;5.72;100.00;97840.13;109792;1249;58912;-74
2023/11/02 03:48:45;;;;;;;18.60;14.40;;;;;;;5.75;100.00;97838.73;109583;1250;64836;-74
2023/11/02 03:51:34;;;;;;;18.60;15.40;;;;;;;5.78;100.00;97834.52;109819;1249;60212;-74
2023/11/02 03:54:42;;;;;;;18.00;14.20;;;;;;;5.80;100.00;97826.94;109863;1250;64146;-74
2023/11/02 03:57:18;;;;;;;16.50;13.20;;;;;;;5.83;100.00;97820.43;109647;1249;59338;-74
2023/11/02 04:00:02;;;;;;;17.90;13.80;;;;;;;5.83;100.00;97811.09;109574;1251;58989;-74
2023/11/02 04:02:31;;;;;;;17.60;14.40;;;;;;;5.84;100.00;97806.23;109581;1250;65668;-74
2023/11/02 04:05:21;;;;;;;16.40;13.50;;;;;;;5.85;100.00;97802.69;109785;1250;59880;-75
2023/11/02 04:08:12;;;;;;;16.60;13.60;;;;;;;5.85;100.00;97804.08;109826;1249;64061;-74
2023/11/02 04:10:50;;;;;;;15.70;14.10;;;;;;;5.85;100.00;97799.86;109778;1249;59255;-74
2023/11/02 04:13:22;;;;;;;15.70;13.40;;;;;;;5.86;100.00;97802.06;109581;1251;59106;-74
2023/11/02 04:15:52;;;;;;;18.30;14.30;;;;;;;5.86;100.00;97792.84;109642;1250;67091;-74
2023/11/02 04:18:19;;;;;;;19.10;15.80;;;;;;;5.88;100.00;97782.84;109784;1249;60432;-74
2023/11/02 04:20:51;;;;;;;19.40;15.10;;;;;;;5.89;100.00;97780.48;109822;1249;65304;-74
2023/11/02 04:23:20;;;;;;;18.60;14.50;;;;;;;5.90;100.00;97783.77;109792;1249;59248;-75
2023/11/02 04:25:47;;;;;;;17.10;14.00;;;;;;;5.91;100.00;97782.84;109821;1249;59165;-74
2023/11/02 04:28:13;;;;;;;15.80;12.50;;;;;;;5.91;100.00;97783.70;109627;1251;65832;-74
2023/11/02 04:30:40;;;;;;;19.00;14.10;;;;;;;5.91;100.00;97789.58;109639;1249;60227;-73
2023/11/02 04:33:06;;;;;;;16.60;13.80;;;;;;;5.90;100.00;97782.41;109414;1251;64106;-73
2023/11/02 04:35:34;;;;;;;23.50;19.70;;;;;;;5.88;100.00;97777.40;109802;1249;58963;-74
2023/11/02 04:38:08;;;;;;;21.70;19.50;;;;;;;5.86;100.00;97775.23;109773;1250;58998;-73
2023/11/02 04:40:39;;;;;;;19.10;15.10;;;;;;;5.85;100.00;97768.29;109868;1250;64594;-73
2023/11/02 04:43:05;;;;;;;;;;;;;;;5.84;100.00;97759.17;109845;1249;59115;-74
2023/11/02 04:45:34;;;;;;;12.20;10.90;;;;;;;5.82;100.00;97753.30;109798;1249;59049;-74
2023/11/02 04:48:02;;;;;;;12.70;10.10;;;;;;;5.82;100.00;97746.07;109541;1249;59320;-74
2023/11/02 04:50:29;;;;;;;11.70;10.50;;;;;;;5.83;100.00;97742.52;109832;1249;59133;-73
2023/11/02 04:52:55;;;;;;;14.40;10.90;;;;;;;5.83;100.00;97739.47;109889;1250;64500;-74
2023/11/02 04:55:22;;;;;;;11.00;9.80;;;;;;;5.85;100.00;97734.59;109811;1250;60055;-73
2023/11/02 04:57:48;;;;;;;12.90;10.30;;;;;;;5.86;100.00;97730.30;109774;1249;59361;-73
2023/11/02 05:00:15;;;;;;;11.90;10.70;;;;;;;5.86;100.00;97729.94;109816;1249;58980;-73
2023/11/02 05:02:42;;;;;;;12.90;10.40;;;;;;;5.86;100.00;97729.75;109574;1250;58930;-73
2023/11/02 05:05:08;;;;;;;10.30;9.30;;;;;;;5.88;100.00;97727.53;109856;1249;67138;-74
2023/11/02 05:07:35;;;;;;;12.40;9.40;;;;;;;5.91;100.00;97727.17;109831;1249;58983;-74
2023/11/02 05:10:03;;;;;;;10.70;9.60;;;;;;;5.94;100.00;97722.89;109414;1249;59485;-73
2023/11/02 05:12:30;;;;;;;10.60;9.50;;;;;;;5.99;100.00;97713.62;109776;1250;59014;-73
2023/11/02 05:14:57;;;;;;;11.90;9.80;;;;;;;6.03;100.00;97704.81;109819;1249;58885;-73
2023/11/02 05:17:23;;;;;;;8.90;7.60;;;;;;;6.08;100.00;97698.66;109831;1249;65096;-73
2023/11/02 05:19:50;;;;;;;9.80;7.40;;;;;;;6.13;100.00;97695.17;109873;1249;59339;-73
2023/11/02 05:22:16;;;;;;;10.40;8.60;;;;;;;6.19;100.00;97694.92;109812;1249;59057;-73
2023/11/02 05:24:43;;;;;;;10.50;9.20;;;;;;;6.24;100.00;97690.70;109793;1250;58975;-72
2023/11/02 05:27:09;;;;;;;9.40;8.20;;;;;;;6.29;100.00;97690.71;109804;1249;58908;-72
2023/11/02 05:29:36;;;;;;;10.10;8.30;;;;;;;6.33;100.00;97689.37;109813;1250;59086;-74
2023/11/02 05:32:02;;;;;;;8.50;7.30;;;;;;;6.37;100.00;97696.13;109837;1249;59031;-73
2023/11/02 05:34:29;;;;;;;9.20;8.00;;;;;;;6.40;100.00;97692.19;109782;1249;64074;-73
2023/11/02 05:36:55;;;;;;;13.70;10.30;;;;;;;6.42;100.00;97693.49;109784;1249;58941;-74
2023/11/02 05:39:21;;;;;;;11.40;10.20;;;;;;;6.40;100.00;97698.20;109839;1249;58932;-73
2023/11/02 05:41:48;;;;;;;13.50;10.20;;;;;;;6.37;100.00;97702.80;109864;1250;59034;-74
2023/11/02 05:44:14;;;;;;;13.00;11.30;;;;;;;6.35;100.00;97703.49;109415;1251;59468;-73
2023/11/02 05:46:41;;;;;;;14.20;11.60;;;;;;;6.32;100.00;97698.41;109753;1249;59281;-73
2023/11/02 05:49:08;;;;;;;12.50;10.60;;;;;;;6.31;100.00;97688.82;109883;1249;59341;-74
2023/11/02 05:51:34;;;;;;;17.50;11.60;;;;;;;6.30;100.00;97689.23;109811;1250;61533;-73
2023/11/02 05:54:01;;;;;;;14.00;11.40;;;;;;;6.30;100.00;97685.52;109837;1250;66077;-73
2023/11/02 05:56:27;;;;;;;12.90;11.00;;;;;;;6.31;100.00;97689.17;109819;1250;58996;-74
2023/11/02 05:58:56;;;;;;;12.80;10.60;;;;;;;6.32;100.00;97686.96;109830;1249;59046;-74
2023/11/02 06:01:24;;;;;;;12.10;10.10;;;;;;;6.34;100.00;97683.48;109838;1250;59288;-73
2023/11/02 06:03:51;;;;;;;12.20;10.40;;;;;;;6.35;100.00;97679.30;109836;1249;58925;-73
2023/11/02 06:06:18;;;;;;;12.90;11.20;;;;;;;6.38;100.00;97675.63;109489;1251;67169;-73
2023/11/02 06:08:44;;;;;;;15.00;11.70;;;;;;;6.41;100.00;97674.38;109809;1249;59015;-73
2023/11/02 06:11:11;;;;;;;12.30;11.00;;;;;;;6.44;100.00;97677.69;109828;1249;59311;-77
2023/11/02 06:13:38;;;;;;;13.90;11.00;;;;;;;6.47;100.00;97679.21;109814;1249;58967;-72
2023/11/02 06:16:06;;;;;;;14.50;10.60;;;;;;;6.50;100.00;97682.50;109786;1249;59275;-72
2023/11/02 06:18:33;;;;;;;12.40;9.90;;;;;;;6.54;100.00;97682.92;109861;1250;66050;-72
2023/11/02 06:20:59;;;;;;;11.30;9.70;;;;;;;6.58;100.00;97680.52;109580;1249;59004;-74
2023/11/02 06:23:26;;;;;;;11.10;9.60;;;;;;;6.62;100.00;97682.00;109812;1250;62550;-73
2023/11/02 06:25:52;;;;;;;12.30;9.90;;;;;;;6.67;100.00;97679.72;109524;1249;59009;-71
2023/11/02 06:28:19;;;;;;;10.70;9.30;;;;;;;6.70;100.00;97682.62;109798;1250;58854;-73
2023/11/02 06:30:46;;;;;;;12.50;10.00;;;;;;;6.74;100.00;97683.95;109844;1249;66187;-72
2023/11/02 06:33:22;;;;;;;12.40;8.80;;;;;;;6.77;100.00;97683.92;109804;1250;59012;-72
2023/11/02 06:35:49;;;;;;;12.30;9.30;;;;;;;6.80;100.00;97680.16;109794;1249;65240;-72
2023/11/02 06:38:17;;;;;;;10.10;8.90;;;;;;;6.84;100.00;97678.32;109490;1250;59015;-72
2023/11/02 06:40:44;;;;;;;12.20;10.30;;;;;;;6.87;100.00;97675.44;109846;1249;58875;-72
2023/11/02 06:43:10;;;;;;;10.80;8.50;;;;;;;6.91;100.00;97672.52;109438;1249;59350;-71
2023/11/02 06:45:37;;;;;;;9.10;8.00;;;;;;;6.95;100.00;97667.60;109866;1249;59975;-71
2023/11/02 06:48:03;;;;;;;12.40;8.60;;;;;;;6.99;100.00;97664.65;109824;1250;59062;-72
2023/11/02 06:50:30;;;;;;;11.70;9.30;;;;;;;7.03;100.00;97657.48;109792;1250;58931;-71
2023/11/02 06:52:56;;;;;;;9.50;8.50;;;;;;;7.09;100.00;97652.25;109835;1249;59316;-71
2023/11/02 06:55:23;;;;;;;9.10;7.30;;;;;;;7.15;100.00;97649.20;109853;1249;59308;-72
2023/11/02 06:57:49;;;;;;;8.80;7.90;;;;;;;7.21;100.00;97643.08;109852;1249;58951;-72
2023/11/02 07:00:16;;;;;;;10.20;7.40;;;;;;;7.27;100.00;97643.48;109812;1250;63721;-72
2023/11/02 07:02:43;;;;;;;10.10;7.30;;;;;;;7.33;100.00;97643.44;109794;1250;58976;-72
2023/11/02 07:05:09;;;;;;;9.90;7.90;;;;;;;7.39;100.00;97642.08;109870;1250;59065;-72
2023/11/02 07:07:38;;;;;;;9.40;8.00;;;;;;;7.44;100.00;97635.10;109818;1249;65710;-73
2023/11/02 07:10:08;;;;;;;10.60;8.20;;;;;;;7.52;100.00;97629.27;109784;1249;58934;-74
2023/11/02 07:12:36;;;;;;;16.30;12.30;;;;;;;7.60;100.00;97624.20;109797;1250;62913;-77
2023/11/02 07:15:03;;;;;;;41.00;25.80;;;;;;;7.67;100.00;97623.83;109567;1250;59213;-75
2023/11/02 07:17:29;;;;;;;36.20;20.00;;;;;;;7.76;100.00;97616.65;109411;1249;58954;-75
2023/11/02 07:19:56;;;;;;;26.00;15.90;;;;;;;7.84;100.00;97616.14;109719;1249;65728;-75
2023/11/02 07:22:22;;;;;;;17.00;10.80;;;;;;;7.93;100.00;97608.78;109591;1250;59024;-75
2023/11/02 07:24:49;;;;;;;16.50;9.70;;;;;;;8.01;100.00;97604.63;109638;1249;63834;-73
2023/11/02 07:27:16;;;;;;;12.30;7.60;;;;;;;8.09;100.00;97599.02;109696;1250;59400;-74
2023/11/02 07:29:44;;;;;;;9.90;7.20;;;;;;;8.17;100.00;97593.06;109705;1250;58835;-75
2023/11/02 07:32:11;;;;;;;18.40;10.90;;;;;;;8.24;100.00;97594.05;109371;1249;66598;-77
2023/11/02 07:34:37;;;;;;;14.20;9.60;;;;;;;8.32;100.00;97585.80;109766;1249;59014;-75
2023/11/02 07:37:04;;;;;;;9.60;7.30;;;;;;;8.42;100.00;97575.88;109698;1249;64249;-74
2023/11/02 07:39:33;;;;;;;18.80;11.30;;;;;;;8.51;100.00;97576.70;109551;1249;59318;-73
2023/11/02 07:42:00;;;;;;;20.30;13.00;;;;;;;8.62;100.00;97575.44;109708;1249;59297;-76
2023/11/02 07:44:26;;;;;;;15.00;9.70;;;;;;;8.72;100.00;97574.85;109457;1249;65772;-80
2023/11/02 07:46:53;;;;;;;17.70;11.10;;;;;;;8.79;100.00;97574.45;109758;1249;59396;-77
2023/11/02 07:49:19;;;;;;;15.80;10.00;;;;;;;8.85;100.00;97579.25;109875;1249;59095;-68
2023/11/02 07:51:46;;;;;;;13.30;9.50;;;;;;;8.90;100.00;97576.77;109840;1250;59022;-68
2023/11/02 07:54:12;;;;;;;11.10;7.00;;;;;;;8.93;100.00;97565.00;109519;1250;59008;-68
2023/11/02 07:56:39;;;;;;;10.60;7.80;;;;;;;8.96;100.00;97563.48;109826;1249;59366;-68
2023/11/02 07:59:05;;;;;;;9.30;7.00;;;;;;;9.02;100.00;97564.01;109523;1249;58918;-68
2023/11/02 08:01:32;;;;;;;11.30;7.80;;;;;;;9.10;100.00;97556.83;109790;1249;59098;-68
2023/11/02 08:03:58;;;;;;;16.10;10.20;;;;;;;9.17;100.00;97545.42;109803;1249;58958;-74
2023/11/02 08:06:25;;;;;;;12.10;7.90;;;;;;;9.24;100.00;97544.15;109870;1250;58879;-69
2023/11/02 08:08:51;;;;;;;15.00;8.30;;;;;;;9.30;100.00;97536.50;109835;1249;65936;-67
2023/11/02 08:11:18;;;;;;;11.00;8.50;;;;;;;9.38;100.00;97533.71;109842;1249;60921;-68
2023/11/02 08:13:45;;;;;;;9.60;6.90;;;;;;;9.47;100.00;97531.02;109784;1250;64098;-69
2023/11/02 08:16:12;;;;;;;14.00;8.90;;;;;;;9.52;100.00;97526.16;109712;1249;58928;-75
2023/11/02 08:18:38;;;;;;;10.30;6.70;;;;;;;9.57;100.00;97522.54;109718;1250;58887;-76
2023/11/02 08:21:08;;;;;;;17.10;13.80;;;;;;;9.63;100.00;97523.04;109575;1250;59409;-73
2023/11/02 08:23:35;;;;;;;14.80;10.10;;;;;;;9.74;100.00;97515.20;109702;1250;60049;-73
2023/11/02 08:26:01;;;;;;;9.10;7.30;;;;;;;9.83;100.00;97506.96;109395;1250;64286;-73
2023/11/02 08:28:28;;;;;;;9.40;7.20;;;;;;;9.86;100.00;97505.41;109471;1250;58996;-74
2023/11/02 08:30:54;;;;;;;10.00;7.30;;;;;;;9.86;100.00;97509.81;109404;1250;58911;-75
2023/11/02 08:33:20;;;;;;;10.00;6.60;;;;;;;9.86;100.00;97517.98;109541;1249;59012;-71
2023/11/02 08:35:47;;;;;;;7.60;6.00;;;;;;;9.86;100.00;97511.63;109710;1249;59211;-76
2023/11/02 08:38:14;;;;;;;8.70;5.60;;;;;;;9.89;100.00;97508.40;109495;1250;59046;-72
2023/11/02 08:40:41;;;;;;;7.20;5.90;;;;;;;9.96;100.00;97508.59;109670;1250;58991;-74
2023/11/02 08:43:07;;;;;;;9.00;5.60;;;;;;;10.03;100.00;97506.02;109568;1250;58960;-73
2023/11/02 08:45:34;;;;;;;6.10;5.40;;;;;;;10.09;100.00;97504.81;109722;1250;64848;-72
2023/11/02 08:48:00;;;;;;;7.40;5.70;;;;;;;10.14;100.00;97500.51;109445;1250;59320;-73
2023/11/02 08:50:27;;;;;;;7.40;5.50;;;;;;;10.19;100.00;97494.71;109835;1250;62450;-73
2023/11/02 08:52:54;;;;;;;9.20;6.50;;;;;;;10.29;100.00;97490.27;109346;1251;59015;-72
2023/11/02 08:55:20;;;;;;;6.50;5.20;;;;;;;10.49;100.00;97490.95;109419;1249;59099;-72
2023/11/02 08:57:47;;;;;;;11.20;7.50;;;;;;;10.71;100.00;97490.02;109849;1250;64781;-72
2023/11/02 09:00:14;;;;;;;10.20;7.00;;;;;;;10.91;100.00;97490.52;109434;1251;59806;-72
2023/11/02 09:02:41;;;;;;;11.30;7.30;;;;;;;11.06;100.00;97487.34;109820;1249;63745;-72
2023/11/02 09:05:08;;;;;;;12.30;7.20;;;;;;;11.26;100.00;97488.70;109856;1250;58993;-73
2023/11/02 09:07:34;;;;;;;8.10;4.40;;;;;;;11.48;100.00;97482.39;109829;1249;58866;-74
2023/11/02 09:10:01;;;;;;;4.70;3.40;;;;;;;11.79;100.00;97479.56;109648;1250;112636;-75
2023/11/02 09:12:29;;;;;;;3.70;1.70;;;;;;;12.15;100.00;97473.46;109693;1250;58950;-68
2023/11/02 09:14:56;;;;;;;3.40;2.10;;;;;;;12.46;100.00;97468.75;109655;1249;62723;-76
2023/11/02 09:17:24;;;;;;;3.90;2.00;;;;;;;12.74;100.00;97461.86;109569;1249;59026;-76
2023/11/02 09:19:50;;;;;;;5.00;1.70;;;;;;;13.00;100.00;97457.99;109686;1249;58993;-73
2023/11/02 09:22:16;;;;;;;3.30;1.40;;;;;;;13.22;100.00;97455.20;109689;1250;59261;-72
2023/11/02 09:24:45;;;;;;;2.70;1.30;;;;;;;13.41;100.00;97455.42;109712;1249;59011;-73
2023/11/02 09:27:11;;;;;;;6.40;3.00;;;;;;;13.57;100.00;97455.72;109462;1249;63784;-78
2023/11/02 09:29:39;;;;;;;4.40;3.50;;;;;;;13.71;100.00;97452.55;109666;1250;59097;-77
2023/11/02 09:32:06;;;;;;;7.00;3.40;;;;;;;13.79;100.00;97454.15;109762;1249;58968;-77
2023/11/02 09:34:38;;;;;;;4.60;3.50;;;;;;;13.88;100.00;97453.41;109404;1249;64658;-76
2023/11/02 09:37:05;;;;;;;4.10;2.60;;;;;;;13.95;100.00;97448.23;109712;1250;61439;-76
2023/11/02 09:39:32;;;;;;;5.90;2.90;;;;;;;14.02;100.00;97448.21;109686;1249;64135;-78
2023/11/02 09:41:59;;;;;;;6.50;4.00;;;;;;;14.12;100.00;97441.92;109703;1249;58969;-78
2023/11/02 09:44:27;;;;;;;6.60;5.20;;;;;;;14.21;100.00;97439.19;109584;1251;58921;-76
2023/11/02 09:46:53;;;;;;;6.20;4.70;;;;;;;14.27;100.00;97436.92;109739;1250;64990;-80
2023/11/02 09:49:20;;;;;;;4.40;2.10;;;;;;;14.34;100.00;97429.48;109554;1251;60079;-77
2023/11/02 09:51:47;;;;;;;2.40;2.00;;;;;;;14.43;100.00;97426.14;109723;1250;64397;-78
2023/11/02 09:54:14;;;;;;;1.20;0.80;;;;;;;14.59;100.00;97423.89;109714;1250;58979;-78
2023/11/02 09:56:41;;;;;;;4.60;1.60;;;;;;;14.74;100.00;97426.73;109550;1251;58972;-75
2023/11/02 09:59:09;;;;;;;2.60;1.30;;;;;;;14.87;100.00;97424.71;109734;1250;65906;-75
2023/11/02 10:01:36;;;;;;;2.20;0.90;;;;;;;14.97;100.00;97418.11;109392;1250;59161;-78
2023/11/02 10:04:02;;;;;;;2.10;0.80;;;;;;;15.06;100.00;97416.41;109540;1250;62774;-78
2023/11/02 10:06:30;;;;;;;4.10;1.20;;;;;;;15.17;100.00;97410.96;109701;1249;59788;-74
2023/11/02 10:08:56;;;;;;;1.50;0.80;;;;;;;15.28;100.00;97408.23;109566;1250;59911;-76
2023/11/02 10:11:24;;;;;;;5.00;0.90;;;;;;;15.39;100.00;97400.10;109599;1250;64730;-76
2023/11/02 10:13:51;;;;;;;2.20;0.90;;;;;;;15.45;100.00;97393.82;109701;1250;59126;-77
2023/11/02 10:16:22;;;;;;;4.00;0.90;;;;;;;15.51;100.00;97387.38;109713;1249;64231;-77
2023/11/02 10:18:49;;;;;;;7.20;1.10;;;;;;;15.60;100.00;97381.95;109695;1250;59012;-76
2023/11/02 10:21:16;;;;;;;5.50;0.80;;;;;;;15.68;100.00;97382.26;109671;1249;59002;-78
2023/11/02 10:23:49;;;;;;;2.50;0.70;;;;;;;15.76;100.00;97380.34;109708;1250;66044;-77
2023/11/02 10:26:15;;;;;;;4.30;0.90;;;;;;;15.84;100.00;97375.83;109563;1249;61225;-77
2023/11/02 10:28:43;;;;;;;1.10;0.70;;;;;;;15.91;100.00;97366.81;109705;1250;64108;-77
2023/11/02 10:31:09;;;;;;;2.20;0.60;;;;;;;15.97;100.00;97364.71;109700;1249;59274;-77
2023/11/02 10:33:36;;;;;;;2.00;0.80;;;;;;;16.02;100.00;97366.80;109721;1250;59304;-78
2023/11/02 10:36:05;;;;;;;2.00;0.70;;;;;;;16.08;100.00;97351.95;109585;1249;65739;-78
2023/11/02 10:38:32;;;;;;;0.70;0.50;;;;;;;16.16;100.00;97351.96;109732;1250;67303;-78
2023/11/02 10:40:59;;;;;;;3.60;0.60;;;;;;;16.24;100.00;97352.78;109663;1250;64127;-74
2023/11/02 10:43:27;;;;;;;1.60;0.50;;;;;;;16.30;100.00;97358.64;109711;1250;59287;-73
2023/11/02 10:45:54;;;;;;;1.30;0.50;;;;;;;16.37;100.00;97359.81;109705;1250;59896;-73
2023/11/02 10:48:21;;;;;;;1.00;0.60;;;;;;;16.46;100.00;97358.77;109727;1250;65810;-71
2023/11/02 10:50:52;;;;;;;1.50;0.40;;;;;;;16.59;100.00;97356.54;109693;1250;59060;-73
2023/11/02 10:53:35;;;;;;;5.00;0.80;;;;;;;16.71;100.00;97347.39;109515;1250;63770;-70
2023/11/02 10:56:12;;;;;;;6.40;0.80;;;;;;;16.80;100.00;97348.68;109685;1250;58955;-70
2023/11/02 10:58:40;;;;;;;4.00;1.10;;;;;;;16.89;100.00;97348.70;109432;1251;59058;-76
2023/11/02 11:01:09;;;;;;;4.50;0.70;;;;;;;17.12;100.00;97348.88;109611;1251;66055;-78
2023/11/02 11:03:36;;;;;;;2.50;0.70;;;;;;;17.37;100.00;97342.73;109660;1250;58973;-74
2023/11/02 11:06:04;;;;;;;0.80;0.70;;;;;;;17.56;100.00;97342.86;109640;1249;65145;-77
2023/11/02 11:08:31;;;;;;;3.70;0.80;;;;;;;17.69;100.00;97343.94;109704;1249;58966;-76
2023/11/02 11:10:59;;;;;;;2.20;0.80;;;;;;;17.83;100.00;97340.61;109753;1250;58839;-76
2023/11/02 11:13:28;;;;;;;1.90;0.70;;;;;;;17.96;100.00;97339.11;109538;1250;66063;-79
2023/11/02 11:15:57;;;;;;;3.80;0.80;;;;;;;18.03;100.00;97340.45;109758;1252;58939;-80
2023/11/02 11:18:24;;;;;;;3.10;0.80;;;;;;;17.99;100.00;97341.27;109678;1249;64068;-80
2023/11/02 11:20:51;;;;;;;1.70;0.80;;;;;;;17.98;100.00;97337.14;109579;1250;59128;-77
2023/11/02 11:23:18;;;;;;;1.60;0.60;;;;;;;18.01;100.00;97337.10;109644;1249;59437;-77
2023/11/02 11:25:56;;;;;;;1.30;0.60;;;;;;;18.00;100.00;97328.42;109839;1250;65878;-73
2023/11/02 11:28:35;;;;;;;2.60;0.50;;;;;;;17.95;100.00;97308.55;109710;1250;60175;-71
2023/11/02 11:31:02;;;;;;;2.10;0.60;;;;;;;17.83;100.00;97298.54;109604;1251;64068;-72